sensor_id;sensor_type;location;lat;lon;timestamp;pressure;altitude;pressure_sealevel;temperature;humidity
39243;BME280;29823;47.404;8.566;2022-09-30T00:01:21;95488.88;;;10.63;100.00
39243;BME280;29823;47.404;8.566;2022-09-30T00:03:52;95501.47;;;10.68;100.00
39243;BME280;29823;47.404;8.566;2022-09-30T00:06:20;95497.41;;;10.60;100.00
39243;BME280;29823;47.404;8.566;2022-09-30T00:08:48;95501.69;;;10.61;100.00
39243;BME280;29823;47.404;8.566;2022-09-30T00:11:19;95501.69;;;10.61;100.00
39243;BME280;29823;47.404;8.566;2022-09-30T00:13:49;95500.41;;;10.69;100.00
39243;BME280;29823;47.404;8.566;2022-09-30T00:16:18;95503.50;;;10.56;100.00
39243;BME280;29823;47.404;8.566;2022-09-30T00:18:46;95506.44;;;10.54;100.00
39243;BME280;29823;47.404;8.566;2022-09-30T00:21:16;95507.53;;;10.58;100.00
39243;BME280;29823;47.404;8.566;2022-09-30T00:23:44;95475.91;;;10.45;100.00
39243;BME280;29823;47.404;8.566;2022-09-30T00:26:14;95500.56;;;10.57;100.00
39243;BME280;29823;47.404;8.566;2022-09-30T00:28:43;95510.81;;;10.65;100.00
39243;BME280;29823;47.404;8.566;2022-09-30T00:31:12;95515.06;;;10.61;100.00
39243;BME280;29823;47.404;8.566;2022-09-30T00:33:41;95524.69;;;10.62;100.00
39243;BME280;29823;47.404;8.566;2022-09-30T00:36:10;95519.09;;;10.64;100.00
39243;BME280;29823;47.404;8.566;2022-09-30T00:38:39;95520.66;;;10.60;100.00
39243;BME280;29823;47.404;8.566;2022-09-30T00:41:06;95529.22;;;10.62;100.00
39243;BME280;29823;47.404;8.566;2022-09-30T00:43:39;95521.38;;;10.50;100.00
39243;BME280;29823;47.404;8.566;2022-09-30T00:46:16;95525.19;;;10.59;100.00
39243;BME280;29823;47.404;8.566;2022-09-30T00:48:46;95504.22;;;10.46;100.00
39243;BME280;29823;47.404;8.566;2022-09-30T00:51:23;95528.41;;;10.61;100.00
39243;BME280;29823;47.404;8.566;2022-09-30T00:53:56;95525.69;;;10.56;100.00
39243;BME280;29823;47.404;8.566;2022-09-30T00:56:29;95523.03;;;10.56;100.00
39243;BME280;29823;47.404;8.566;2022-09-30T00:59:04;95522.78;;;10.58;100.00
39243;BME280;29823;47.404;8.566;2022-09-30T01:01:35;95526.53;;;10.57;100.00
39243;BME280;29823;47.404;8.566;2022-09-30T01:04:09;95532.88;;;10.51;100.00
39243;BME280;29823;47.404;8.566;2022-09-30T01:06:38;95514.09;;;10.41;100.00
39243;BME280;29823;47.404;8.566;2022-09-30T01:09:09;95528.84;;;10.48;100.00
39243;BME280;29823;47.404;8.566;2022-09-30T01:11:37;95535.31;;;10.57;100.00
39243;BME280;29823;47.404;8.566;2022-09-30T01:14:07;95529.78;;;10.64;100.00
39243;BME280;29823;47.404;8.566;2022-09-30T01:16:49;95533.22;;;10.59;100.00
39243;BME280;29823;47.404;8.566;2022-09-30T01:19:36;95537.50;;;10.60;100.00
39243;BME280;29823;47.404;8.566;2022-09-30T01:22:20;95538.91;;;10.68;100.00
39243;BME280;29823;47.404;8.566;2022-09-30T01:25:29;95537.50;;;10.60;100.00
39243;BME280;29823;47.404;8.566;2022-09-30T01:31:18;95549.91;;;10.45;100.00
39243;BME280;29823;47.404;8.566;2022-09-30T01:33:54;95545.69;;;10.49;100.00
39243;BME280;29823;47.404;8.566;2022-09-30T01:36:33;95544.28;;;10.41;100.00
39243;BME280;29823;47.404;8.566;2022-09-30T01:39:24;95542.38;;;10.37;100.00
39243;BME280;29823;47.404;8.566;2022-09-30T01:42:00;95540.28;;;10.44;100.00
39243;BME280;29823;47.404;8.566;2022-09-30T01:44:36;95546.94;;;10.41;100.00
39243;BME280;29823;47.404;8.566;2022-09-30T01:47:15;95550.13;;;10.38;100.00
39243;BME280;29823;47.404;8.566;2022-09-30T01:49:47;95545.28;;;10.35;100.00
39243;BME280;29823;47.404;8.566;2022-09-30T01:52:23;95548.06;;;10.45;100.00
39243;BME280;29823;47.404;8.566;2022-09-30T01:54:59;95547.84;;;10.52;100.00
39243;BME280;29823;47.404;8.566;2022-09-30T01:57:33;95547.56;;;10.53;100.00
39243;BME280;29823;47.404;8.566;2022-09-30T02:00:05;95547.56;;;10.53;100.00
39243;BME280;29823;47.404;8.566;2022-09-30T02:02:38;95540.84;;;10.46;100.00
39243;BME280;29823;47.404;8.566;2022-09-30T02:05:13;95549.72;;;10.51;100.00
39243;BME280;29823;47.404;8.566;2022-09-30T02:07:46;95548.53;;;10.42;100.00
39243;BME280;29823;47.404;8.566;2022-09-30T02:10:19;95547.56;;;10.48;100.00
39243;BME280;29823;47.404;8.566;2022-09-30T02:12:53;95548.94;;;10.56;100.00
39243;BME280;29823;47.404;8.566;2022-09-30T02:15:27;95544.34;;;10.51;100.00
39243;BME280;29823;47.404;8.566;2022-09-30T02:18:02;95549.59;;;10.41;100.00
39243;BME280;29823;47.404;8.566;2022-09-30T02:20:36;95554.25;;;10.51;100.00
39243;BME280;29823;47.404;8.566;2022-09-30T02:23:07;95557.78;;;10.56;100.00
39243;BME280;29823;47.404;8.566;2022-09-30T02:25:38;95552.44;;;10.56;100.00
39243;BME280;29823;47.404;8.566;2022-09-30T02:28:11;95548.19;;;10.60;100.00
39243;BME280;29823;47.404;8.566;2022-09-30T02:30:44;95556.72;;;10.57;100.00
39243;BME280;29823;47.404;8.566;2022-09-30T02:33:18;95554.31;;;10.61;100.00
39243;BME280;29823;47.404;8.566;2022-09-30T02:35:49;95546.44;;;10.44;100.00
39243;BME280;29823;47.404;8.566;2022-09-30T02:38:20;95556.94;;;10.56;100.00
39243;BME280;29823;47.404;8.566;2022-09-30T02:40:52;95559.28;;;10.47;100.00
39243;BME280;29823;47.404;8.566;2022-09-30T02:43:22;95560.41;;;10.51;100.00
39243;BME280;29823;47.404;8.566;2022-09-30T02:46:00;95546.50;;;10.49;100.00
39243;BME280;29823;47.404;8.566;2022-09-30T02:48:37;95560.53;;;10.40;100.00
39243;BME280;29823;47.404;8.566;2022-09-30T02:51:12;95554.41;;;10.39;100.00
39243;BME280;29823;47.404;8.566;2022-09-30T02:53:44;95560.91;;;10.48;100.00
39243;BME280;29823;47.404;8.566;2022-09-30T02:56:22;95562.91;;;10.36;100.00
39243;BME280;29823;47.404;8.566;2022-09-30T02:58:52;95571.59;;;10.48;100.00
39243;BME280;29823;47.404;8.566;2022-09-30T03:01:23;95575.88;;;10.49;100.00
39243;BME280;29823;47.404;8.566;2022-09-30T03:03:55;95575.78;;;10.39;100.00
39243;BME280;29823;47.404;8.566;2022-09-30T03:06:24;95562.88;;;10.31;100.00
39243;BME280;29823;47.404;8.566;2022-09-30T03:08:53;95569.69;;;10.44;100.00
39243;BME280;29823;47.404;8.566;2022-09-30T03:11:23;95580.88;;;10.41;100.00
39243;BME280;29823;47.404;8.566;2022-09-30T03:14:11;95579.09;;;10.51;100.00
39243;BME280;29823;47.404;8.566;2022-09-30T03:16:58;95585.72;;;10.44;100.00
39243;BME280;29823;47.404;8.566;2022-09-30T03:19:46;95547.13;;;10.30;100.00
39243;BME280;29823;47.404;8.566;2022-09-30T03:22:36;95592.47;;;10.51;100.00
39243;BME280;29823;47.404;8.566;2022-09-30T03:25:22;95594.59;;;10.49;100.00
39243;BME280;29823;47.404;8.566;2022-09-30T03:28:03;95588.13;;;10.45;100.00
39243;BME280;29823;47.404;8.566;2022-09-30T03:30:38;95600.94;;;10.70;100.00
39243;BME280;29823;47.404;8.566;2022-09-30T03:33:16;95600.63;;;10.66;100.00
39243;BME280;29823;47.404;8.566;2022-09-30T03:35:55;95601.94;;;10.64;100.00
39243;BME280;29823;47.404;8.566;2022-09-30T03:38:33;95605.66;;;10.36;100.00
39243;BME280;29823;47.404;8.566;2022-09-30T03:41:09;95605.78;;;10.46;100.00
39243;BME280;29823;47.404;8.566;2022-09-30T03:43:42;95606.31;;;10.43;100.00
39243;BME280;29823;47.404;8.566;2022-09-30T03:46:16;95593.28;;;10.52;100.00
39243;BME280;29823;47.404;8.566;2022-09-30T03:48:47;95599.22;;;10.59;100.00
39243;BME280;29823;47.404;8.566;2022-09-30T03:51:17;95607.53;;;10.62;100.00
39243;BME280;29823;47.404;8.566;2022-09-30T03:53:45;95602.19;;;10.62;100.00
39243;BME280;29823;47.404;8.566;2022-09-30T03:56:13;95597.66;;;10.63;100.00
39243;BME280;29823;47.404;8.566;2022-09-30T03:58:42;95583.13;;;10.54;100.00
39243;BME280;29823;47.404;8.566;2022-09-30T04:01:16;95599.47;;;10.57;100.00
39243;BME280;29823;47.404;8.566;2022-09-30T04:03:46;95602.25;;;10.67;100.00
39243;BME280;29823;47.404;8.566;2022-09-30T04:06:20;95598.72;;;10.35;100.00
39243;BME280;29823;47.404;8.566;2022-09-30T04:08:49;95610.72;;;10.33;100.00
39243;BME280;29823;47.404;8.566;2022-09-30T04:11:16;95605.28;;;10.49;100.00
39243;BME280;29823;47.404;8.566;2022-09-30T04:13:44;95613.59;;;10.53;100.00
39243;BME280;29823;47.404;8.566;2022-09-30T04:16:12;95611.78;;;10.58;100.00
39243;BME280;29823;47.404;8.566;2022-09-30T04:18:39;95614.44;;;10.58;100.00
39243;BME280;29823;47.404;8.566;2022-09-30T04:21:09;95604.47;;;10.49;100.00
39243;BME280;29823;47.404;8.566;2022-09-30T04:23:40;95606.47;;;10.63;100.00
39243;BME280;29823;47.404;8.566;2022-09-30T04:26:10;95607.59;;;10.67;100.00
39243;BME280;29823;47.404;8.566;2022-09-30T04:28:38;95610.31;;;10.72;100.00
39243;BME280;29823;47.404;8.566;2022-09-30T04:31:06;95606.41;;;10.85;100.00
39243;BME280;29823;47.404;8.566;2022-09-30T04:33:34;95607.50;;;10.57;100.00
39243;BME280;29823;47.404;8.566;2022-09-30T04:36:02;95614.25;;;10.65;100.00
39243;BME280;29823;47.404;8.566;2022-09-30T04:38:29;95611.13;;;10.73;100.00
39243;BME280;29823;47.404;8.566;2022-09-30T04:41:01;95621.72;;;10.63;100.00
39243;BME280;29823;47.404;8.566;2022-09-30T04:43:29;95624.34;;;10.58;100.00
39243;BME280;29823;47.404;8.566;2022-09-30T04:45:57;95611.53;;;10.33;100.00
39243;BME280;29823;47.404;8.566;2022-09-30T04:48:25;95635.63;;;10.38;100.00
39243;BME280;29823;47.404;8.566;2022-09-30T04:50:54;95637.59;;;10.48;100.00
39243;BME280;29823;47.404;8.566;2022-09-30T04:53:21;95639.84;;;10.34;100.00
39243;BME280;29823;47.404;8.566;2022-09-30T04:55:49;95646.69;;;10.25;100.00
39243;BME280;29823;47.404;8.566;2022-09-30T04:58:18;95647.69;;;10.19;100.00
39243;BME280;29823;47.404;8.566;2022-09-30T05:00:46;95651.25;;;10.25;100.00
39243;BME280;29823;47.404;8.566;2022-09-30T05:03:14;95645.19;;;10.34;100.00
39243;BME280;29823;47.404;8.566;2022-09-30T05:05:43;95650.44;;;10.24;100.00
39243;BME280;29823;47.404;8.566;2022-09-30T05:08:11;95661.13;;;10.24;100.00
39243;BME280;29823;47.404;8.566;2022-09-30T05:10:38;95654.66;;;10.20;100.00
39243;BME280;29823;47.404;8.566;2022-09-30T05:13:06;95652.56;;;10.22;100.00
39243;BME280;29823;47.404;8.566;2022-09-30T05:15:35;95665.44;;;10.30;100.00
39243;BME280;29823;47.404;8.566;2022-09-30T05:18:03;95655.34;;;10.32;100.00
39243;BME280;29823;47.404;8.566;2022-09-30T05:20:31;95668.53;;;10.17;100.00
39243;BME280;29823;47.404;8.566;2022-09-30T05:22:59;95665.34;;;10.20;100.00
39243;BME280;29823;47.404;8.566;2022-09-30T05:25:26;95670.81;;;10.09;100.00
39243;BME280;29823;47.404;8.566;2022-09-30T05:27:54;95675.84;;;10.05;100.00
39243;BME280;29823;47.404;8.566;2022-09-30T05:33:17;95673.97;;;10.27;100.00
39243;BME280;29823;47.404;8.566;2022-09-30T05:35:45;95675.53;;;10.23;100.00
39243;BME280;29823;47.404;8.566;2022-09-30T05:38:13;95678.81;;;10.30;100.00
39243;BME280;29823;47.404;8.566;2022-09-30T05:40:40;95691.63;;;10.28;100.00
39243;BME280;29823;47.404;8.566;2022-09-30T05:43:09;95660.38;;;10.07;100.00
39243;BME280;29823;47.404;8.566;2022-09-30T05:45:36;95691.69;;;10.33;100.00
39243;BME280;29823;47.404;8.566;2022-09-30T05:48:05;95695.66;;;10.31;100.00
39243;BME280;29823;47.404;8.566;2022-09-30T05:50:35;95690.22;;;10.47;100.00
39243;BME280;29823;47.404;8.566;2022-09-30T05:53:03;95700.25;;;10.35;100.00
39243;BME280;29823;47.404;8.566;2022-09-30T05:55:30;95701.84;;;10.36;100.00
39243;BME280;29823;47.404;8.566;2022-09-30T05:58:04;95707.03;;;10.69;100.00
39243;BME280;29823;47.404;8.566;2022-09-30T06:00:32;95703.81;;;10.67;100.00
39243;BME280;29823;47.404;8.566;2022-09-30T06:02:59;95703.81;;;10.67;100.00
39243;BME280;29823;47.404;8.566;2022-09-30T06:05:27;95708.69;;;10.49;100.00
39243;BME280;29823;47.404;8.566;2022-09-30T06:07:56;95711.06;;;10.45;100.00
39243;BME280;29823;47.404;8.566;2022-09-30T06:10:24;95716.44;;;10.72;100.00
39243;BME280;29823;47.404;8.566;2022-09-30T06:12:52;95724.72;;;10.70;100.00
39243;BME280;29823;47.404;8.566;2022-09-30T06:15:19;95719.38;;;10.70;100.00
39243;BME280;29823;47.404;8.566;2022-09-30T06:17:51;95721.72;;;10.67;100.00
39243;BME280;29823;47.404;8.566;2022-09-30T06:20:18;95728.34;;;10.59;100.00
39243;BME280;29823;47.404;8.566;2022-09-30T06:22:46;95729.25;;;10.70;100.00
39243;BME280;29823;47.404;8.566;2022-09-30T06:25:16;95730.91;;;10.76;100.00
39243;BME280;29823;47.404;8.566;2022-09-30T06:27:44;95731.94;;;10.70;100.00
39243;BME280;29823;47.404;8.566;2022-09-30T06:30:13;95709.63;;;10.59;100.00
39243;BME280;29823;47.404;8.566;2022-09-30T06:32:41;95733.94;;;10.84;100.00
39243;BME280;29823;47.404;8.566;2022-09-30T06:35:09;95731.69;;;10.71;100.00
39243;BME280;29823;47.404;8.566;2022-09-30T06:37:37;95740.75;;;10.70;100.00
39243;BME280;29823;47.404;8.566;2022-09-30T06:40:06;95731.16;;;10.74;100.00
39243;BME280;29823;47.404;8.566;2022-09-30T06:42:35;95737.13;;;10.81;100.00
39243;BME280;29823;47.404;8.566;2022-09-30T06:45:04;95746.19;;;10.80;100.00
39243;BME280;29823;47.404;8.566;2022-09-30T06:47:32;95746.81;;;10.87;100.00
39243;BME280;29823;47.404;8.566;2022-09-30T06:49:59;95742.78;;;10.85;100.00
39243;BME280;29823;47.404;8.566;2022-09-30T06:52:28;95747.44;;;10.94;100.00
39243;BME280;29823;47.404;8.566;2022-09-30T06:54:56;95747.53;;;11.04;100.00
39243;BME280;29823;47.404;8.566;2022-09-30T06:57:24;95744.59;;;10.79;100.00
39243;BME280;29823;47.404;8.566;2022-09-30T06:59:55;95744.69;;;10.89;100.00
39243;BME280;29823;47.404;8.566;2022-09-30T07:02:23;95748.94;;;10.85;100.00
39243;BME280;29823;47.404;8.566;2022-09-30T07:04:51;95743.69;;;10.95;100.00
39243;BME280;29823;47.404;8.566;2022-09-30T07:07:18;95750.44;;;10.76;100.00
39243;BME280;29823;47.404;8.566;2022-09-30T07:09:47;95748.94;;;10.85;100.00
39243;BME280;29823;47.404;8.566;2022-09-30T07:12:15;95743.56;;;10.85;100.00
39243;BME280;29823;47.404;8.566;2022-09-30T07:14:43;95752.88;;;11.04;100.00
39243;BME280;29823;47.404;8.566;2022-09-30T07:17:12;95757.72;;;11.07;100.00
39243;BME280;29823;47.404;8.566;2022-09-30T07:19:40;95751.53;;;11.02;100.00
39243;BME280;29823;47.404;8.566;2022-09-30T07:22:11;95743.91;;;11.15;100.00
39243;BME280;29823;47.404;8.566;2022-09-30T07:24:59;95745.31;;;11.23;100.00
39243;BME280;29823;47.404;8.566;2022-09-30T07:27:28;95746.63;;;11.20;100.00
39243;BME280;29823;47.404;8.566;2022-09-30T07:29:58;95743.53;;;11.33;100.00
39243;BME280;29823;47.404;8.566;2022-09-30T07:32:39;95742.47;;;11.34;100.00
39243;BME280;29823;47.404;8.566;2022-09-30T07:35:07;95745.25;;;11.49;100.00
39243;BME280;29823;47.404;8.566;2022-09-30T07:37:35;95754.53;;;11.63;100.00
39243;BME280;29823;47.404;8.566;2022-09-30T07:40:04;95766.88;;;11.69;100.00
39243;BME280;29823;47.404;8.566;2022-09-30T07:42:36;95766.59;;;11.66;100.00
39243;BME280;29823;47.404;8.566;2022-09-30T07:45:04;95770.06;;;11.61;100.00
39243;BME280;29823;47.404;8.566;2022-09-30T07:47:32;95774.34;;;11.62;100.00
39243;BME280;29823;47.404;8.566;2022-09-30T07:50:01;95776.06;;;11.78;100.00
39243;BME280;29823;47.404;8.566;2022-09-30T07:52:29;95782.72;;;11.71;100.00
39243;BME280;29823;47.404;8.566;2022-09-30T07:54:57;95773.41;;;11.78;100.00
39243;BME280;29823;47.404;8.566;2022-09-30T07:57:25;95785.19;;;11.82;100.00
39243;BME280;29823;47.404;8.566;2022-09-30T07:59:52;95785.47;;;11.81;100.00
39243;BME280;29823;47.404;8.566;2022-09-30T08:02:20;95789.06;;;11.96;100.00
39243;BME280;29823;47.404;8.566;2022-09-30T08:04:50;95785.06;;;11.99;100.00
39243;BME280;29823;47.404;8.566;2022-09-30T08:07:19;95792.34;;;12.08;100.00
39243;BME280;29823;47.404;8.566;2022-09-30T08:09:46;95795.63;;;12.20;100.00
39243;BME280;29823;47.404;8.566;2022-09-30T08:12:14;95790.88;;;12.27;100.00
39243;BME280;29823;47.404;8.566;2022-09-30T08:14:42;95800.56;;;12.33;100.00
39243;BME280;29823;47.404;8.566;2022-09-30T08:17:10;95802.03;;;12.14;100.00
39243;BME280;29823;47.404;8.566;2022-09-30T08:19:38;95806.22;;;12.37;100.00
39243;BME280;29823;47.404;8.566;2022-09-30T08:22:09;95810.38;;;12.64;100.00
39243;BME280;29823;47.404;8.566;2022-09-30T08:24:40;95805.00;;;12.59;100.00
39243;BME280;29823;47.404;8.566;2022-09-30T08:27:08;95819.00;;;12.25;100.00
39243;BME280;29823;47.404;8.566;2022-09-30T08:29:36;95819.00;;;12.25;100.00
39243;BME280;29823;47.404;8.566;2022-09-30T08:32:22;95819.75;;;12.15;100.00
39243;BME280;29823;47.404;8.566;2022-09-30T08:34:50;95816.66;;;12.33;100.00
39243;BME280;29823;47.404;8.566;2022-09-30T08:37:18;95825.34;;;12.55;100.00
39243;BME280;29823;47.404;8.566;2022-09-30T08:39:47;95834.00;;;12.67;100.00
39243;BME280;29823;47.404;8.566;2022-09-30T08:42:25;95831.41;;;12.87;100.00
39243;BME280;29823;47.404;8.566;2022-09-30T08:45:19;95838.91;;;12.80;100.00
39243;BME280;29823;47.404;8.566;2022-09-30T08:47:52;95847.47;;;12.82;100.00
39243;BME280;29823;47.404;8.566;2022-09-30T08:50:28;95848.63;;;12.50;100.00
39243;BME280;29823;47.404;8.566;2022-09-30T08:52:58;95847.09;;;12.59;100.00
39243;BME280;29823;47.404;8.566;2022-09-30T08:55:34;95855.50;;;12.31;100.00
39243;BME280;29823;47.404;8.566;2022-09-30T08:58:05;95853.88;;;12.30;100.00
39243;BME280;29823;47.404;8.566;2022-09-30T09:00:39;95840.44;;;12.25;100.00
39243;BME280;29823;47.404;8.566;2022-09-30T09:03:10;95862.28;;;12.43;100.00
39243;BME280;29823;47.404;8.566;2022-09-30T09:05:46;95870.44;;;12.58;100.00
39243;BME280;29823;47.404;8.566;2022-09-30T09:08:28;95859.47;;;12.70;100.00
39243;BME280;29823;47.404;8.566;2022-09-30T09:11:08;95869.91;;;12.61;100.00
39243;BME280;29823;47.404;8.566;2022-09-30T09:13:46;95883.09;;;12.68;100.00
39243;BME280;29823;47.404;8.566;2022-09-30T09:16:21;95878.63;;;12.88;100.00
39243;BME280;29823;47.404;8.566;2022-09-30T09:18:58;95872.44;;;12.41;100.00
39243;BME280;29823;47.404;8.566;2022-09-30T09:21:35;95873.84;;;12.49;100.00
39243;BME280;29823;47.404;8.566;2022-09-30T09:24:19;95879.81;;;12.56;100.00
39243;BME280;29823;47.404;8.566;2022-09-30T09:26:49;95884.16;;;12.67;100.00
39243;BME280;29823;47.404;8.566;2022-09-30T09:29:35;95896.19;;;12.59;100.00
39243;BME280;29823;47.404;8.566;2022-09-30T09:32:11;95894.56;;;12.63;100.00
39243;BME280;29823;47.404;8.566;2022-09-30T09:34:39;95901.91;;;12.73;100.00
39243;BME280;29823;47.404;8.566;2022-09-30T09:37:14;95905.31;;;12.63;100.00
39243;BME280;29823;47.404;8.566;2022-09-30T09:39:56;95902.38;;;12.28;100.00
39243;BME280;29823;47.404;8.566;2022-09-30T09:42:42;95899.66;;;12.60;100.00
39243;BME280;29823;47.404;8.566;2022-09-30T09:45:22;95905.13;;;12.38;100.00
39243;BME280;29823;47.404;8.566;2022-09-30T09:47:53;95900.97;;;12.57;100.00
39243;BME280;29823;47.404;8.566;2022-09-30T09:50:26;95915.47;;;12.98;100.00
39243;BME280;29823;47.404;8.566;2022-09-30T09:53:20;95905.66;;;13.18;100.00
39243;BME280;29823;47.404;8.566;2022-09-30T09:55:54;95910.56;;;13.36;100.00
39243;BME280;29823;47.404;8.566;2022-09-30T09:58:26;95913.25;;;13.41;100.00
39243;BME280;29823;47.404;8.566;2022-09-30T10:01:08;95917.56;;;13.42;100.00
39243;BME280;29823;47.404;8.566;2022-09-30T10:04:12;95915.72;;;13.58;100.00
39243;BME280;29823;47.404;8.566;2022-09-30T10:06:47;95911.75;;;13.75;100.00
39243;BME280;29823;47.404;8.566;2022-09-30T10:09:22;95914.13;;;13.67;100.00
39243;BME280;29823;47.404;8.566;2022-09-30T10:11:51;95915.03;;;14.07;100.00
39243;BME280;29823;47.404;8.566;2022-09-30T10:14:20;95911.78;;;13.95;100.00
39243;BME280;29823;47.404;8.566;2022-09-30T10:16:48;95910.50;;;14.33;100.00
39243;BME280;29823;47.404;8.566;2022-09-30T10:19:19;95924.19;;;14.81;100.00
39243;BME280;29823;47.404;8.566;2022-09-30T10:21:47;95919.63;;;14.32;100.00
39243;BME280;29823;47.404;8.566;2022-09-30T10:24:26;95878.22;;;14.08;100.00
39243;BME280;29823;47.404;8.566;2022-09-30T10:26:55;95916.97;;;14.47;100.00
39243;BME280;29823;47.404;8.566;2022-09-30T10:29:27;95916.94;;;14.72;100.00
39243;BME280;29823;47.404;8.566;2022-09-30T10:31:54;95930.91;;;14.89;100.00
39243;BME280;29823;47.404;8.566;2022-09-30T10:34:27;95924.75;;;14.53;100.00
39243;BME280;29823;47.404;8.566;2022-09-30T10:36:58;95930.13;;;14.63;100.00
39243;BME280;29823;47.404;8.566;2022-09-30T10:39:27;95928.81;;;14.46;100.00
39243;BME280;29823;47.404;8.566;2022-09-30T10:42:00;95922.28;;;14.82;100.00
39243;BME280;29823;47.404;8.566;2022-09-30T10:44:30;95924.41;;;15.10;100.00
39243;BME280;29823;47.404;8.566;2022-09-30T10:47:00;95921.50;;;14.76;100.00
39243;BME280;29823;47.404;8.566;2022-09-30T10:49:31;95927.91;;;15.00;100.00
39243;BME280;29823;47.404;8.566;2022-09-30T10:52:02;95941.34;;;15.15;100.00
39243;BME280;29823;47.404;8.566;2022-09-30T10:54:43;95946.81;;;14.60;100.00
39243;BME280;29823;47.404;8.566;2022-09-30T10:57:14;95940.34;;;14.56;100.00
39243;BME280;29823;47.404;8.566;2022-09-30T10:59:44;95945.47;;;14.78;100.00
39243;BME280;29823;47.404;8.566;2022-09-30T11:02:25;95935.78;;;14.37;100.00
39243;BME280;29823;47.404;8.566;2022-09-30T11:05:04;95944.13;;;14.70;100.00
39243;BME280;29823;47.404;8.566;2022-09-30T11:07:38;95942.78;;;14.78;100.00
39243;BME280;29823;47.404;8.566;2022-09-30T11:10:24;95951.09;;;14.46;100.00
39243;BME280;29823;47.404;8.566;2022-09-30T11:13:03;95955.66;;;14.81;100.00
39243;BME280;29823;47.404;8.566;2022-09-30T11:15:41;95954.56;;;15.02;100.00
39243;BME280;29823;47.404;8.566;2022-09-30T11:18:14;95959.34;;;15.30;100.00
39243;BME280;29823;47.404;8.566;2022-09-30T11:20:47;95940.75;;;15.43;100.00
39243;BME280;29823;47.404;8.566;2022-09-30T11:23:21;95963.47;;;14.87;100.00
39243;BME280;29823;47.404;8.566;2022-09-30T11:25:56;95967.69;;;15.38;100.00
39243;BME280;29823;47.404;8.566;2022-09-30T11:28:54;95966.34;;;15.41;100.00
39243;BME280;29823;47.404;8.566;2022-09-30T11:31:30;95962.34;;;15.13;100.00
39243;BME280;29823;47.404;8.566;2022-09-30T11:34:14;95958.34;;;15.06;100.00
39243;BME280;29823;47.404;8.566;2022-09-30T11:36:51;95952.66;;;15.17;100.00
39243;BME280;29823;47.404;8.566;2022-09-30T11:39:38;95965.81;;;15.44;100.00
39243;BME280;29823;47.404;8.566;2022-09-30T11:42:14;95959.91;;;15.37;100.00
39243;BME280;29823;47.404;8.566;2022-09-30T11:44:45;95959.66;;;15.23;100.00
39243;BME280;29823;47.404;8.566;2022-09-30T11:47:30;95962.19;;;15.73;100.00
39243;BME280;29823;47.404;8.566;2022-09-30T11:50:20;95955.22;;;15.67;100.00
39243;BME280;29823;47.404;8.566;2022-09-30T11:52:56;95955.47;;;15.66;100.00
39243;BME280;29823;47.404;8.566;2022-09-30T11:55:39;95965.19;;;15.62;100.00
39243;BME280;29823;47.404;8.566;2022-09-30T11:58:12;95959.69;;;14.98;100.00
39243;BME280;29823;47.404;8.566;2022-09-30T12:01:11;95956.41;;;15.21;100.00
39243;BME280;29823;47.404;8.566;2022-09-30T12:03:46;95957.22;;;15.37;100.00
39243;BME280;29823;47.404;8.566;2022-09-30T12:06:32;95949.97;;;15.17;100.00
39243;BME280;29823;47.404;8.566;2022-09-30T12:09:13;95948.81;;;15.43;100.00
39243;BME280;29823;47.404;8.566;2022-09-30T12:11:47;95952.63;;;15.37;100.00
39243;BME280;29823;47.404;8.566;2022-09-30T12:14:23;95961.50;;;15.43;100.00
39243;BME280;29823;47.404;8.566;2022-09-30T12:16:52;95949.88;;;15.47;100.00
39243;BME280;29823;47.404;8.566;2022-09-30T12:19:28;95946.97;;;15.39;100.00
39243;BME280;29823;47.404;8.566;2022-09-30T12:22:03;95942.91;;;15.31;100.00
39243;BME280;29823;47.404;8.566;2022-09-30T12:24:35;95955.03;;;15.44;100.00
39243;BME280;29823;47.404;8.566;2022-09-30T12:27:04;95959.69;;;14.93;100.00
39243;BME280;29823;47.404;8.566;2022-09-30T12:29:41;95962.31;;;15.38;100.00
39243;BME280;29823;47.404;8.566;2022-09-30T12:35:59;95961.53;;;15.33;100.00
39243;BME280;29823;47.404;8.566;2022-09-30T12:38:47;95962.88;;;15.15;100.00
39243;BME280;29823;47.404;8.566;2022-09-30T12:41:29;95970.97;;;15.15;100.00
39243;BME280;29823;47.404;8.566;2022-09-30T12:44:23;95970.91;;;15.45;100.00
39243;BME280;29823;47.404;8.566;2022-09-30T12:47:13;95971.41;;;15.57;100.00
39243;BME280;29823;47.404;8.566;2022-09-30T12:49:44;95971.47;;;15.42;100.00
39243;BME280;29823;47.404;8.566;2022-09-30T12:52:16;95976.28;;;15.50;100.00
39243;BME280;29823;47.404;8.566;2022-09-30T12:54:49;95967.75;;;15.18;100.00
39243;BME280;29823;47.404;8.566;2022-09-30T12:57:22;95963.13;;;15.34;100.00
39243;BME280;29823;47.404;8.566;2022-09-30T12:59:53;95968.00;;;15.37;100.00
39243;BME280;29823;47.404;8.566;2022-09-30T13:02:30;95969.59;;;15.23;100.00
39243;BME280;29823;47.404;8.566;2022-09-30T13:08:31;95964.44;;;15.51;100.00
39243;BME280;29823;47.404;8.566;2022-09-30T13:11:04;95964.44;;;15.51;100.00
39243;BME280;29823;47.404;8.566;2022-09-30T13:13:33;95955.22;;;15.62;100.00
39243;BME280;29823;47.404;8.566;2022-09-30T13:16:03;95954.06;;;14.75;100.00
39243;BME280;29823;47.404;8.566;2022-09-30T13:18:57;95963.47;;;14.57;100.00
39243;BME280;29823;47.404;8.566;2022-09-30T13:21:26;95963.47;;;14.57;100.00
39243;BME280;29823;47.404;8.566;2022-09-30T13:23:59;95960.75;;;15.02;100.00
39243;BME280;29823;47.404;8.566;2022-09-30T13:26:45;95961.22;;;15.44;100.00
39243;BME280;29823;47.404;8.566;2022-09-30T13:29:34;95962.13;;;14.95;100.00
39243;BME280;29823;47.404;8.566;2022-09-30T13:32:06;95967.72;;;15.23;100.00
39243;BME280;29823;47.404;8.566;2022-09-30T13:34:51;95965.78;;;15.49;100.00